Time;durP1;ratioP1;P1;durP2;ratioP2;P2;SDS_P1;SDS_P2;PMS_P1;PMS_P2;Temp;Humidity;BMP_temperature;BMP_pressure;BME280_temperature;BME280_humidity;BME280_pressure;Samples;Min_cycle;Max_cycle;Signal;HPM_P1;HPM_P2
2023/04/03 00:01:45;;;;;;;2.45;1.42;;;;;;;;;;4936326;29;20516;-78
2023/04/03 00:04:11;;;;;;;1.88;1.35;;;;;;;;;;4936407;29;20031;-78
2023/04/03 00:06:37;;;;;;;3.72;1.52;;;;;;;;;;4936520;29;20175;-78
2023/04/03 00:09:03;;;;;;;2.28;1.13;;;;;;;;;;4936373;29;20110;-77
2023/04/03 00:11:29;;;;;;;2.35;1.10;;;;;;;;;;4919270;29;20034;-78
2023/04/03 00:13:55;;;;;;;3.00;1.05;;;;;;;;;;4936435;29;20363;-78
2023/04/03 00:16:21;;;;;;;2.28;1.17;;;;;;;;;;4936158;29;20028;-78
2023/04/03 00:18:47;;;;;;;3.88;1.40;;;;;;;;;;4936234;29;20106;-78
2023/04/03 00:21:15;;;;;;;3.47;1.00;;;;;;;;;;4936283;29;20451;-78
2023/04/03 00:23:41;;;;;;;3.50;1.15;;;;;;;;;;4936315;29;20026;-78
2023/04/03 00:26:07;;;;;;;3.20;0.90;;;;;;;;;;4936107;29;20059;-77
2023/04/03 00:28:33;;;;;;;5.63;1.23;;;;;;;;;;4936077;29;20056;-78
2023/04/03 00:30:59;;;;;;;3.50;1.40;;;;;;;;;;4936114;29;20024;-78
2023/04/03 00:33:25;;;;;;;2.13;0.80;;;;;;;;;;4918879;29;20024;-78
2023/04/03 00:35:51;;;;;;;2.08;0.80;;;;;;;;;;4936024;29;20075;-78
2023/04/03 00:38:20;;;;;;;3.08;0.95;;;;;;;;;;4936296;29;20356;-78
2023/04/03 00:40:47;;;;;;;3.95;0.90;;;;;;;;;;4936028;29;20024;-78
2023/04/03 00:43:18;;;;;;;2.15;1.00;;;;;;;;;;4918999;29;20517;-78
2023/04/03 00:45:45;;;;;;;2.20;0.98;;;;;;;;;;4936057;29;20032;-78
2023/04/03 00:48:17;;;;;;;4.32;0.82;;;;;;;;;;4939876;29;20128;-78
2023/04/03 00:50:44;;;;;;;3.83;1.48;;;;;;;;;;4939868;29;20482;-78
2023/04/03 00:53:13;;;;;;;2.40;1.20;;;;;;;;;;4939692;29;20483;-78
2023/04/03 00:55:40;;;;;;;1.13;0.98;;;;;;;;;;4939598;29;20478;-78
2023/04/03 00:58:07;;;;;;;2.17;1.08;;;;;;;;;;4922612;29;20024;-77
2023/04/03 01:00:33;;;;;;;5.60;1.95;;;;;;;;;;4940031;29;20418;-78
2023/04/03 01:02:59;;;;;;;5.57;1.08;;;;;;;;;;4939655;29;20042;-78
2023/04/03 01:05:27;;;;;;;1.67;1.13;;;;;;;;;;4922831;29;20388;-78
2023/04/03 01:07:54;;;;;;;3.63;1.10;;;;;;;;;;4939533;29;20028;-78
2023/04/03 01:10:21;;;;;;;3.63;1.30;;;;;;;;;;4939447;29;20106;-78
2023/04/03 01:12:49;;;;;;;2.75;1.10;;;;;;;;;;4939374;29;20024;-78
2023/04/03 01:15:18;;;;;;;3.08;1.10;;;;;;;;;;4939660;29;20135;-78
2023/04/03 01:17:50;;;;;;;1.63;1.05;;;;;;;;;;4939466;29;20024;-77
2023/04/03 01:20:32;;;;;;;1.25;1.00;;;;;;;;;;4939631;29;20027;-78
2023/04/03 01:23:10;;;;;;;3.42;1.60;;;;;;;;;;4939666;29;20030;-78
2023/04/03 01:25:39;;;;;;;1.35;1.00;;;;;;;;;;4939159;29;20024;-77
2023/04/03 01:28:06;;;;;;;2.30;1.38;;;;;;;;;;4939519;29;20031;-78
2023/04/03 01:30:35;;;;;;;2.40;1.10;;;;;;;;;;4939273;29;20030;-78
2023/04/03 01:33:01;;;;;;;2.20;1.40;;;;;;;;;;4939348;29;20028;-78
2023/04/03 01:35:27;;;;;;;2.38;1.60;;;;;;;;;;4938787;29;20046;-77
2023/04/03 01:37:53;;;;;;;1.40;1.30;;;;;;;;;;4940983;29;20042;-78
2023/04/03 01:40:19;;;;;;;2.00;1.40;;;;;;;;;;4943341;29;20028;-78
2023/04/03 01:42:45;;;;;;;3.67;1.70;;;;;;;;;;4939764;29;20062;-78
2023/04/03 01:45:11;;;;;;;5.05;1.52;;;;;;;;;;4943877;29;20032;-78
2023/04/03 01:47:37;;;;;;;5.97;1.67;;;;;;;;;;4943150;29;20493;-78
2023/04/03 01:50:03;;;;;;;1.60;1.30;;;;;;;;;;4939150;29;20039;-78
2023/04/03 01:52:30;;;;;;;3.47;1.75;;;;;;;;;;4938316;29;20035;-78
2023/04/03 01:54:56;;;;;;;2.20;1.70;;;;;;;;;;4938995;29;20028;-78
2023/04/03 01:57:22;;;;;;;1.88;1.50;;;;;;;;;;4921777;29;20477;-78
2023/04/03 01:59:47;;;;;;;3.28;1.50;;;;;;;;;;4938763;29;20028;-78
2023/04/03 02:02:28;;;;;;;2.85;1.33;;;;;;;;;;4938462;29;20028;-78
2023/04/03 02:04:55;;;;;;;;;;;;;;;;;;4939364;29;20032;-78
2023/04/03 02:07:21;;;;;;;2.20;1.17;;;;;;;;;;4938748;29;19913;-78
2023/04/03 02:09:47;;;;;;;2.28;1.30;;;;;;;;;;4938834;29;20059;-78
2023/04/03 02:12:13;;;;;;;5.80;2.28;;;;;;;;;;4938551;29;20027;-78
2023/04/03 02:14:39;;;;;;;3.70;1.65;;;;;;;;;;4921426;29;20637;-78
2023/04/03 02:17:08;;;;;;;3.30;1.58;;;;;;;;;;4938388;29;20111;-78
2023/04/03 02:19:35;;;;;;;3.00;1.55;;;;;;;;;;4938653;29;20542;-77
2023/04/03 02:22:01;;;;;;;2.70;1.60;;;;;;;;;;4921188;29;20348;-78
2023/04/03 02:24:28;;;;;;;3.58;1.30;;;;;;;;;;4956615;29;20027;-78
2023/04/03 02:26:54;;;;;;;2.00;1.35;;;;;;;;;;4957897;29;20029;-78
2023/04/03 02:29:20;;;;;;;2.97;1.63;;;;;;;;;;4957390;29;20082;-78
2023/04/03 02:31:46;;;;;;;2.05;1.02;;;;;;;;;;4957242;29;20438;-78
2023/04/03 02:34:12;;;;;;;3.53;1.08;;;;;;;;;;4957108;29;20035;-78
2023/04/03 02:36:38;;;;;;;3.53;1.17;;;;;;;;;;4939974;29;20039;-78
2023/04/03 02:39:04;;;;;;;3.58;1.40;;;;;;;;;;4939793;29;20167;-77
2023/04/03 02:41:34;;;;;;;1.63;1.30;;;;;;;;;;4939913;29;20027;-78
2023/04/03 02:44:01;;;;;;;1.63;1.25;;;;;;;;;;4957140;29;20460;-78
2023/04/03 02:46:28;;;;;;;2.00;0.90;;;;;;;;;;4957210;29;20027;-78
2023/04/03 02:48:57;;;;;;;2.20;1.60;;;;;;;;;;4957162;29;20481;-78
2023/04/03 02:51:23;;;;;;;1.75;1.02;;;;;;;;;;4939795;29;20039;-78
2023/04/03 02:53:50;;;;;;;2.03;1.02;;;;;;;;;;4941202;29;20066;-78
2023/04/03 02:56:17;;;;;;;1.38;0.80;;;;;;;;;;4937633;29;20030;-78
2023/04/03 02:58:43;;;;;;;3.67;0.85;;;;;;;;;;4937393;29;20478;-78
2023/04/03 03:01:09;;;;;;;3.00;1.20;;;;;;;;;;4937751;29;20051;-78
2023/04/03 03:03:35;;;;;;;4.15;1.17;;;;;;;;;;4937630;29;20028;-78
2023/04/03 03:06:12;;;;;;;1.83;0.85;;;;;;;;;;4937578;29;20075;-78
2023/04/03 03:08:38;;;;;;;1.98;0.70;;;;;;;;;;4937245;29;20127;-77
2023/04/03 03:11:04;;;;;;;2.75;1.15;;;;;;;;;;4937353;29;20024;-78
2023/04/03 03:13:31;;;;;;;2.13;1.08;;;;;;;;;;4937611;29;20055;-78
2023/04/03 03:15:57;;;;;;;2.38;1.10;;;;;;;;;;4920465;29;20031;-78
2023/04/03 03:18:23;;;;;;;3.45;1.15;;;;;;;;;;4937264;29;20075;-78
2023/04/03 03:20:53;;;;;;;3.22;0.95;;;;;;;;;;4937251;29;20030;-78
2023/04/03 03:23:19;;;;;;;4.97;1.45;;;;;;;;;;4937251;29;20814;-77
2023/04/03 03:25:45;;;;;;;3.53;1.00;;;;;;;;;;4937324;29;20051;-78
2023/04/03 03:28:11;;;;;;;6.47;1.10;;;;;;;;;;4937200;29;20063;-78
2023/04/03 03:30:49;;;;;;;3.50;1.13;;;;;;;;;;4937463;29;20032;-78
2023/04/03 03:33:17;;;;;;;3.67;1.50;;;;;;;;;;4937389;29;20030;-78
2023/04/03 03:35:43;;;;;;;1.95;0.80;;;;;;;;;;4937183;29;20040;-78
2023/04/03 03:38:09;;;;;;;2.25;1.10;;;;;;;;;;4937135;29;20499;-78
2023/04/03 03:40:35;;;;;;;1.63;0.90;;;;;;;;;;4937116;29;20035;-78
2023/04/03 03:43:01;;;;;;;1.80;1.00;;;;;;;;;;4937182;29;20024;-78
2023/04/03 03:45:27;;;;;;;2.70;0.93;;;;;;;;;;4919989;29;20031;-78
2023/04/03 03:47:53;;;;;;;3.30;1.10;;;;;;;;;;4937050;29;20371;-78
2023/04/03 03:50:19;;;;;;;1.58;1.15;;;;;;;;;;4936846;29;20028;-78
2023/04/03 03:52:45;;;;;;;3.08;1.20;;;;;;;;;;4935604;29;20059;-78
2023/04/03 03:55:11;;;;;;;2.63;1.45;;;;;;;;;;4919735;29;20463;-78
2023/04/03 03:57:37;;;;;;;5.22;1.10;;;;;;;;;;4936719;29;20028;-78
2023/04/03 04:00:04;;;;;;;3.33;0.82;;;;;;;;;;4936712;29;20110;-78
2023/04/03 04:02:30;;;;;;;3.05;1.20;;;;;;;;;;4919968;29;20024;-78
2023/04/03 04:04:56;;;;;;;4.13;1.35;;;;;;;;;;4936718;29;20114;-78
2023/04/03 04:07:22;;;;;;;5.70;1.10;;;;;;;;;;4936627;29;20023;-78
2023/04/03 04:09:49;;;;;;;1.77;0.80;;;;;;;;;;4936449;29;20382;-78
2023/04/03 04:12:16;;;;;;;2.13;0.88;;;;;;;;;;4936428;29;20027;-78
2023/04/03 04:14:42;;;;;;;2.17;1.17;;;;;;;;;;4936466;29;20043;-78
2023/04/03 04:17:08;;;;;;;3.35;1.38;;;;;;;;;;4936605;29;20477;-79
2023/04/03 04:19:34;;;;;;;3.35;1.20;;;;;;;;;;4936890;29;20102;-79
2023/04/03 04:22:00;;;;;;;3.47;1.13;;;;;;;;;;4936384;29;20019;-78
2023/04/03 04:24:26;;;;;;;2.17;1.20;;;;;;;;;;4942115;29;20031;-78
2023/04/03 04:26:52;;;;;;;3.75;1.10;;;;;;;;;;4943055;29;20019;-79
2023/04/03 04:29:18;;;;;;;2.90;1.23;;;;;;;;;;4946436;29;20027;-79
2023/04/03 04:31:44;;;;;;;4.82;1.50;;;;;;;;;;4947837;28;20032;-78
2023/04/03 04:34:10;;;;;;;2.65;1.30;;;;;;;;;;4948535;29;20098;-78
2023/04/03 04:36:36;;;;;;;3.72;1.35;;;;;;;;;;4954796;29;20019;-78
2023/04/03 04:39:02;;;;;;;5.53;1.35;;;;;;;;;;4954725;29;20023;-78
2023/04/03 04:41:28;;;;;;;5.25;1.10;;;;;;;;;;4956380;29;20498;-78
2023/04/03 04:43:54;;;;;;;5.72;1.27;;;;;;;;;;4939292;29;20061;-78
2023/04/03 04:46:20;;;;;;;5.43;1.30;;;;;;;;;;4939193;29;20027;-79
2023/04/03 04:48:46;;;;;;;4.90;1.55;;;;;;;;;;4937368;29;20028;-78
2023/04/03 04:51:12;;;;;;;4.45;1.60;;;;;;;;;;4956314;29;20362;-78
2023/04/03 04:53:38;;;;;;;1.55;1.20;;;;;;;;;;4955383;29;20062;-79
2023/04/03 04:56:05;;;;;;;4.10;1.30;;;;;;;;;;4956300;29;20086;-78
2023/04/03 04:58:31;;;;;;;4.15;1.63;;;;;;;;;;4955242;29;20050;-78
2023/04/03 05:01:00;;;;;;;3.05;1.38;;;;;;;;;;4953369;29;20065;-78
2023/04/03 05:03:26;;;;;;;2.60;1.10;;;;;;;;;;4953643;29;20020;-78
2023/04/03 05:05:52;;;;;;;2.65;1.45;;;;;;;;;;4953515;29;20110;-78
2023/04/03 05:08:18;;;;;;;5.13;1.48;;;;;;;;;;4953904;28;20050;-78
2023/04/03 05:10:45;;;;;;;4.75;1.77;;;;;;;;;;4953481;29;20024;-78
2023/04/03 05:13:11;;;;;;;2.78;1.60;;;;;;;;;;4953785;29;20391;-78
2023/04/03 05:15:37;;;;;;;4.18;1.20;;;;;;;;;;4953480;29;20042;-78
2023/04/03 05:18:04;;;;;;;2.85;1.38;;;;;;;;;;4936180;29;20032;-78
2023/04/03 05:20:30;;;;;;;3.42;1.20;;;;;;;;;;4936446;29;20114;-78
2023/04/03 05:22:56;;;;;;;2.33;1.33;;;;;;;;;;4954343;28;20118;-79
2023/04/03 05:25:22;;;;;;;3.83;1.50;;;;;;;;;;4951932;29;20516;-78
2023/04/03 05:27:48;;;;;;;4.13;0.98;;;;;;;;;;4953303;29;20027;-78
2023/04/03 05:30:14;;;;;;;2.95;1.20;;;;;;;;;;4953432;29;20426;-78
2023/04/03 05:32:41;;;;;;;2.88;1.40;;;;;;;;;;4954171;28;20035;-78
2023/04/03 05:35:07;;;;;;;4.10;1.58;;;;;;;;;;4956583;29;20027;-78
2023/04/03 05:37:33;;;;;;;4.25;2.03;;;;;;;;;;4956625;29;20037;-78
2023/04/03 05:40:00;;;;;;;2.55;1.17;;;;;;;;;;4956736;29;20029;-78
2023/04/03 05:42:26;;;;;;;4.63;1.98;;;;;;;;;;4957354;28;20027;-79
2023/04/03 05:44:52;;;;;;;8.40;1.33;;;;;;;;;;4950408;29;20031;-78
2023/04/03 05:47:18;;;;;;;5.65;1.42;;;;;;;;;;4946955;29;20023;-78
2023/04/03 05:49:45;;;;;;;3.38;1.50;;;;;;;;;;4957013;29;20078;-78
2023/04/03 05:52:27;;;;;;;4.18;1.50;;;;;;;;;;4956013;29;20442;-78
2023/04/03 05:54:53;;;;;;;3.38;1.35;;;;;;;;;;4918266;29;20044;-78
2023/04/03 05:57:20;;;;;;;5.03;1.63;;;;;;;;;;4919731;29;20468;-78
2023/04/03 05:59:46;;;;;;;5.80;1.42;;;;;;;;;;4919432;29;20075;-79
2023/04/03 06:02:13;;;;;;;3.70;1.40;;;;;;;;;;4913457;29;20028;-79
2023/04/03 06:04:39;;;;;;;2.97;1.67;;;;;;;;;;4901245;29;20119;-78
2023/04/03 06:07:05;;;;;;;3.38;2.15;;;;;;;;;;4900204;29;20048;-79
2023/04/03 06:09:31;;;;;;;4.35;1.65;;;;;;;;;;4902966;29;20028;-78
2023/04/03 06:11:58;;;;;;;6.10;2.30;;;;;;;;;;4909436;29;20102;-79
2023/04/03 06:14:25;;;;;;;4.00;2.20;;;;;;;;;;4899323;29;20037;-79
2023/04/03 06:16:51;;;;;;;3.30;1.70;;;;;;;;;;4899504;29;20469;-79
2023/04/03 06:19:17;;;;;;;5.80;2.13;;;;;;;;;;4899541;29;20025;-79
2023/04/03 06:21:43;;;;;;;5.32;1.92;;;;;;;;;;4900352;29;20524;-79
2023/04/03 06:24:10;;;;;;;6.80;1.88;;;;;;;;;;4900542;29;20388;-79
2023/04/03 06:26:36;;;;;;;5.50;2.30;;;;;;;;;;4899023;29;20033;-78
2023/04/03 06:29:02;;;;;;;9.57;2.03;;;;;;;;;;4899399;29;20088;-78
2023/04/03 06:31:28;;;;;;;2.35;1.30;;;;;;;;;;4898911;29;20484;-79
2023/04/03 06:33:55;;;;;;;4.18;1.95;;;;;;;;;;4897779;29;20475;-78
2023/04/03 06:36:21;;;;;;;4.75;1.88;;;;;;;;;;4897304;29;20028;-78
2023/04/03 06:38:47;;;;;;;3.17;1.40;;;;;;;;;;4897326;29;20104;-78
2023/04/03 06:41:13;;;;;;;7.13;2.13;;;;;;;;;;4904370;29;20028;-79
2023/04/03 06:43:39;;;;;;;3.40;1.65;;;;;;;;;;4896471;29;20051;-79
2023/04/03 06:46:06;;;;;;;3.70;2.42;;;;;;;;;;4897105;29;20029;-78
2023/04/03 06:48:32;;;;;;;2.72;1.65;;;;;;;;;;4897469;29;20032;-78
2023/04/03 06:50:58;;;;;;;4.65;1.95;;;;;;;;;;4897838;29;20033;-78
2023/04/03 06:53:24;;;;;;;3.78;1.17;;;;;;;;;;4914538;29;20063;-78
2023/04/03 06:55:50;;;;;;;2.38;1.23;;;;;;;;;;4939860;29;20047;-78
2023/04/03 06:58:17;;;;;;;3.50;1.77;;;;;;;;;;4938482;29;20024;-78
2023/04/03 07:00:43;;;;;;;2.72;1.45;;;;;;;;;;4938603;29;20040;-78
2023/04/03 07:03:09;;;;;;;3.85;1.85;;;;;;;;;;4936535;29;20031;-78
2023/04/03 07:05:35;;;;;;;3.80;1.67;;;;;;;;;;4941663;29;20325;-78
2023/04/03 07:08:01;;;;;;;5.13;2.08;;;;;;;;;;4950482;29;20483;-78
2023/04/03 07:10:27;;;;;;;6.00;1.80;;;;;;;;;;4945313;29;20035;-79
2023/04/03 07:12:53;;;;;;;5.78;1.63;;;;;;;;;;4945924;28;20083;-79
2023/04/03 07:15:19;;;;;;;5.95;2.25;;;;;;;;;;4947292;29;20039;-78
2023/04/03 07:17:46;;;;;;;3.78;1.65;;;;;;;;;;4948193;29;20254;-79
2023/04/03 07:20:12;;;;;;;3.25;1.60;;;;;;;;;;4947810;29;20530;-79
2023/04/03 07:22:38;;;;;;;4.50;1.38;;;;;;;;;;4949394;28;20027;-79
2023/04/03 07:25:06;;;;;;;5.80;1.60;;;;;;;;;;4932296;29;20256;-79
2023/04/03 07:27:33;;;;;;;3.15;1.75;;;;;;;;;;4928908;29;20391;-79
2023/04/03 07:29:59;;;;;;;7.72;1.63;;;;;;;;;;4947370;28;20390;-79
2023/04/03 07:32:25;;;;;;;3.88;1.27;;;;;;;;;;4944274;29;20034;-79
2023/04/03 07:34:51;;;;;;;4.28;1.20;;;;;;;;;;4946440;29;20042;-79
2023/04/03 07:37:17;;;;;;;2.47;1.48;;;;;;;;;;4945003;28;20027;-79
2023/04/03 07:39:44;;;;;;;5.20;1.48;;;;;;;;;;4944449;29;20376;-78
2023/04/03 07:42:12;;;;;;;4.88;1.63;;;;;;;;;;4943448;29;20118;-79
2023/04/03 07:44:38;;;;;;;6.65;2.00;;;;;;;;;;4929423;29;20052;-79
2023/04/03 07:47:04;;;;;;;4.97;2.00;;;;;;;;;;4938796;29;20102;-80
2023/04/03 07:49:31;;;;;;;3.58;1.50;;;;;;;;;;4940547;29;20474;-79
2023/04/03 07:51:57;;;;;;;4.60;1.42;;;;;;;;;;4947348;29;20023;-79
2023/04/03 07:54:23;;;;;;;3.45;1.27;;;;;;;;;;4944290;29;20044;-79
2023/04/03 07:56:49;;;;;;;3.28;1.30;;;;;;;;;;4947697;28;20386;-79
2023/04/03 07:59:15;;;;;;;3.15;1.33;;;;;;;;;;4948064;29;20034;-79
2023/04/03 08:01:41;;;;;;;4.57;1.15;;;;;;;;;;4954212;29;20031;-80
2023/04/03 08:04:07;;;;;;;1.65;1.27;;;;;;;;;;4954992;29;20066;-80
2023/04/03 08:06:36;;;;;;;3.13;1.15;;;;;;;;;;4953750;29;20034;-80
2023/04/03 08:09:03;;;;;;;2.95;1.20;;;;;;;;;;4958247;29;20022;-79
2023/04/03 08:11:30;;;;;;;3.95;1.48;;;;;;;;;;4957362;29;20111;-79
2023/04/03 08:13:55;;;;;;;5.95;1.40;;;;;;;;;;4956965;29;20050;-80
2023/04/03 08:16:22;;;;;;;2.78;1.30;;;;;;;;;;4956010;29;20039;-80
2023/04/03 08:18:49;;;;;;;3.25;1.27;;;;;;;;;;4956239;29;20028;-79
2023/04/03 08:21:15;;;;;;;2.13;1.02;;;;;;;;;;4947692;28;20083;-80
2023/04/03 08:23:41;;;;;;;1.95;1.13;;;;;;;;;;4937905;29;20035;-80
2023/04/03 08:26:12;;;;;;;3.67;1.42;;;;;;;;;;4922566;29;20038;-80
2023/04/03 08:28:38;;;;;;;3.53;1.23;;;;;;;;;;4955878;29;20329;-81
2023/04/03 08:31:06;;;;;;;2.45;1.48;;;;;;;;;;4938254;29;20058;-79
2023/04/03 08:33:32;;;;;;;3.63;1.27;;;;;;;;;;4952794;29;20106;-79
2023/04/03 08:36:12;;;;;;;2.28;1.38;;;;;;;;;;4959325;29;20079;-80
2023/04/03 08:38:47;;;;;;;3.30;1.00;;;;;;;;;;4942879;29;20391;-78
2023/04/03 08:41:35;;;;;;;2.53;1.15;;;;;;;;;;4943240;29;20482;-79
2023/04/03 08:44:22;;;;;;;2.70;1.20;;;;;;;;;;4922384;29;20059;-79
2023/04/03 08:46:57;;;;;;;2.63;1.20;;;;;;;;;;4935564;29;20047;-80
2023/04/03 08:49:34;;;;;;;2.45;1.20;;;;;;;;;;4935001;29;20031;-80
2023/04/03 08:52:03;;;;;;;2.92;0.93;;;;;;;;;;4923588;29;20048;-80
2023/04/03 08:54:32;;;;;;;2.25;1.10;;;;;;;;;;4915081;29;20055;-80
2023/04/03 08:57:00;;;;;;;1.50;0.75;;;;;;;;;;4918880;29;20028;-80
2023/04/03 08:59:31;;;;;;;1.95;1.25;;;;;;;;;;4933846;29;20075;-80
2023/04/03 09:01:59;;;;;;;2.80;0.88;;;;;;;;;;4933723;29;20051;-80
2023/04/03 09:04:27;;;;;;;2.00;1.10;;;;;;;;;;4927886;29;20101;-80
2023/04/03 09:06:55;;;;;;;1.75;0.93;;;;;;;;;;4920358;29;20395;-80
2023/04/03 09:09:21;;;;;;;3.30;1.38;;;;;;;;;;4929794;29;20038;-78
2023/04/03 09:12:09;;;;;;;3.35;1.00;;;;;;;;;;4931524;29;20438;-79
2023/04/03 09:14:46;;;;;;;1.13;0.90;;;;;;;;;;4924227;29;20038;-79
2023/04/03 09:17:21;;;;;;;2.65;1.00;;;;;;;;;;4928318;29;20030;-78
2023/04/03 09:19:51;;;;;;;2.38;0.95;;;;;;;;;;4928967;29;20479;-79
2023/04/03 09:22:17;;;;;;;2.35;0.93;;;;;;;;;;4925385;29;20115;-79
2023/04/03 09:24:46;;;;;;;1.90;0.90;;;;;;;;;;4920489;29;20063;-79
2023/04/03 09:27:12;;;;;;;1.83;0.70;;;;;;;;;;4933562;29;20027;-79
2023/04/03 09:29:45;;;;;;;2.35;0.80;;;;;;;;;;4933409;29;20023;-79
2023/04/03 09:32:23;;;;;;;2.63;0.90;;;;;;;;;;4927792;29;20114;-79
2023/04/03 09:34:50;;;;;;;1.80;0.73;;;;;;;;;;4928229;29;20479;-79
2023/04/03 09:37:36;;;;;;;2.40;0.90;;;;;;;;;;4928196;29;20032;-79
2023/04/03 09:40:04;;;;;;;2.45;0.93;;;;;;;;;;4918418;29;20032;-79
2023/04/03 09:42:31;;;;;;;2.08;0.90;;;;;;;;;;4918214;29;20071;-79
2023/04/03 09:45:00;;;;;;;2.70;0.93;;;;;;;;;;4927409;29;20020;-79
2023/04/03 09:47:37;;;;;;;2.15;0.75;;;;;;;;;;4932537;29;20089;-79
2023/04/03 09:50:13;;;;;;;2.92;0.85;;;;;;;;;;4929517;29;20012;-79
2023/04/03 09:52:40;;;;;;;1.95;0.75;;;;;;;;;;4934096;29;20028;-79
2023/04/03 09:55:07;;;;;;;0.50;0.50;;;;;;;;;;4937077;29;20030;-79
2023/04/03 09:57:34;;;;;;;1.77;0.60;;;;;;;;;;4936935;29;20108;-79
2023/04/03 10:00:04;;;;;;;2.03;0.70;;;;;;;;;;4938850;29;20121;-79
2023/04/03 10:02:30;;;;;;;0.88;0.60;;;;;;;;;;4938590;29;20035;-79
2023/04/03 10:04:57;;;;;;;0.80;0.73;;;;;;;;;;4931838;29;20059;-79
2023/04/03 10:07:27;;;;;;;1.75;0.70;;;;;;;;;;4932345;29;20024;-79
2023/04/03 10:10:02;;;;;;;1.27;0.52;;;;;;;;;;4931751;29;20024;-79
2023/04/03 10:12:29;;;;;;;2.47;0.57;;;;;;;;;;4927637;29;20020;-79
2023/04/03 10:14:56;;;;;;;1.48;0.70;;;;;;;;;;4925899;29;20027;-79
2023/04/03 10:17:22;;;;;;;2.13;0.70;;;;;;;;;;4911626;29;20071;-79
2023/04/03 10:19:58;;;;;;;1.95;0.80;;;;;;;;;;4928068;29;20027;-79
2023/04/03 10:22:30;;;;;;;1.83;0.60;;;;;;;;;;4924664;29;20024;-79
2023/04/03 10:25:05;;;;;;;2.70;0.75;;;;;;;;;;4926394;29;20471;-79
2023/04/03 10:27:40;;;;;;;3.38;1.00;;;;;;;;;;4925492;29;20509;-79
2023/04/03 10:30:29;;;;;;;2.05;0.63;;;;;;;;;;4929172;29;20103;-79
2023/04/03 10:33:15;;;;;;;1.10;0.50;;;;;;;;;;4928703;29;20028;-79
2023/04/03 10:35:59;;;;;;;1.05;0.60;;;;;;;;;;4894727;29;20046;-79
2023/04/03 10:38:26;;;;;;;1.75;0.57;;;;;;;;;;4925880;29;20036;-79
2023/04/03 10:40:54;;;;;;;0.85;0.50;;;;;;;;;;4925754;29;20031;-79
2023/04/03 10:43:36;;;;;;;2.25;0.60;;;;;;;;;;4925429;29;20032;-79
2023/04/03 10:46:04;;;;;;;4.43;0.70;;;;;;;;;;4926890;29;20095;-79
2023/04/03 10:48:56;;;;;;;0.98;0.50;;;;;;;;;;4923634;29;20051;-80
2023/04/03 10:51:26;;;;;;;1.45;0.40;;;;;;;;;;4910947;29;20171;-80
2023/04/03 10:54:01;;;;;;;1.90;0.50;;;;;;;;;;4923082;29;20036;-80
2023/04/03 10:56:44;;;;;;;2.45;0.55;;;;;;;;;;4924773;29;20043;-79
2023/04/03 10:59:29;;;;;;;1.77;0.50;;;;;;;;;;4925508;29;20115;-79
2023/04/03 11:01:57;;;;;;;1.23;0.50;;;;;;;;;;4918669;29;20032;-79
2023/04/03 11:04:25;;;;;;;1.10;0.52;;;;;;;;;;4935546;29;20431;-79
2023/04/03 11:06:57;;;;;;;0.90;0.50;;;;;;;;;;4935618;29;20091;-78
2023/04/03 11:09:28;;;;;;;2.30;0.63;;;;;;;;;;4928600;29;20028;-79
2023/04/03 11:12:02;;;;;;;1.58;0.65;;;;;;;;;;4907423;29;20055;-79
2023/04/03 11:14:29;;;;;;;1.42;0.60;;;;;;;;;;4913941;29;20126;-79
2023/04/03 11:17:14;;;;;;;1.40;0.70;;;;;;;;;;4935741;29;20032;-79
2023/04/03 11:19:46;;;;;;;2.08;0.80;;;;;;;;;;4934858;29;20107;-77
2023/04/03 11:22:15;;;;;;;2.47;1.00;;;;;;;;;;4900578;29;20487;-77
2023/04/03 11:24:42;;;;;;;0.55;0.47;;;;;;;;;;4916083;29;20039;-77
2023/04/03 11:27:18;;;;;;;1.38;0.60;;;;;;;;;;4916025;29;20035;-77
2023/04/03 11:29:46;;;;;;;1.92;0.50;;;;;;;;;;4915892;29;20487;-78
2023/04/03 11:32:31;;;;;;;2.35;0.77;;;;;;;;;;4916026;29;20032;-77
2023/04/03 11:34:59;;;;;;;1.40;0.70;;;;;;;;;;4898919;29;20519;-77
2023/04/03 11:37:36;;;;;;;2.65;0.60;;;;;;;;;;4915988;29;20039;-77
2023/04/03 11:40:06;;;;;;;1.27;0.55;;;;;;;;;;4915568;29;20063;-77
2023/04/03 11:42:35;;;;;;;1.92;0.65;;;;;;;;;;4918652;29;20016;-78
2023/04/03 11:45:16;;;;;;;1.25;0.50;;;;;;;;;;4927968;29;20044;-78
2023/04/03 11:47:49;;;;;;;1.17;0.50;;;;;;;;;;4922169;29;20515;-78
2023/04/03 11:50:34;;;;;;;1.65;0.80;;;;;;;;;;4930651;29;20047;-77
2023/04/03 11:53:20;;;;;;;0.75;0.55;;;;;;;;;;4933968;29;20410;-78
2023/04/03 11:55:53;;;;;;;2.17;0.63;;;;;;;;;;4934873;29;20043;-78
2023/04/03 11:58:26;;;;;;;1.67;0.75;;;;;;;;;;4916374;29;20040;-77
2023/04/03 12:01:05;;;;;;;2.88;0.57;;;;;;;;;;4934590;29;20411;-78
2023/04/03 12:03:36;;;;;;;1.35;0.70;;;;;;;;;;4934859;29;20036;-78
2023/04/03 12:06:15;;;;;;;1.27;0.60;;;;;;;;;;4934558;29;20502;-78
2023/04/03 12:08:45;;;;;;;1.20;0.55;;;;;;;;;;4933815;29;20568;-78
2023/04/03 12:11:14;;;;;;;2.17;0.52;;;;;;;;;;4934977;29;20529;-78
2023/04/03 12:13:51;;;;;;;1.43;0.60;;;;;;;;;;4935472;29;20410;-78
2023/04/03 12:16:21;;;;;;;2.47;1.00;;;;;;;;;;4934854;29;20278;-78
2023/04/03 12:18:50;;;;;;;1.05;0.52;;;;;;;;;;4933841;29;20423;-78
2023/04/03 12:21:21;;;;;;;1.55;0.57;;;;;;;;;;4934655;29;20031;-78
2023/04/03 12:24:22;;;;;;;1.75;0.43;;;;;;;;;;4935939;29;20020;-78
2023/04/03 12:26:58;;;;;;;1.85;0.57;;;;;;;;;;4893617;29;20025;-77
2023/04/03 12:29:29;;;;;;;1.77;0.70;;;;;;;;;;4918285;29;20459;-78
2023/04/03 12:32:04;;;;;;;1.95;0.30;;;;;;;;;;4923116;29;20080;-77
2023/04/03 12:34:36;;;;;;;1.20;0.40;;;;;;;;;;4923554;29;20083;-77
2023/04/03 12:37:07;;;;;;;2.58;0.32;;;;;;;;;;4923269;29;20032;-77
2023/04/03 12:39:42;;;;;;;2.25;0.50;;;;;;;;;;4933902;29;20163;-78
2023/04/03 12:42:44;;;;;;;1.38;0.50;;;;;;;;;;4933233;29;20513;-77
2023/04/03 12:45:10;;;;;;;1.48;0.40;;;;;;;;;;4875614;29;20037;-77
2023/04/03 12:47:37;;;;;;;0.80;0.43;;;;;;;;;;4922922;29;20067;-78
2023/04/03 12:50:05;;;;;;;1.38;0.38;;;;;;;;;;4935543;29;20027;-78
2023/04/03 12:52:37;;;;;;;2.42;0.60;;;;;;;;;;4935476;29;20031;-78
2023/04/03 12:55:04;;;;;;;1.75;0.50;;;;;;;;;;4934112;29;20032;-78
2023/04/03 12:57:32;;;;;;;2.67;1.10;;;;;;;;;;4934221;29;20027;-78
2023/04/03 12:59:58;;;;;;;1.40;0.70;;;;;;;;;;4934088;29;20031;-78
2023/04/03 13:02:28;;;;;;;1.63;0.70;;;;;;;;;;4916698;29;20118;-78
2023/04/03 13:04:57;;;;;;;0.93;0.60;;;;;;;;;;4933595;29;20067;-77
2023/04/03 13:07:27;;;;;;;0.45;0.38;;;;;;;;;;4923552;29;20052;-77
2023/04/03 13:10:15;;;;;;;1.98;0.90;;;;;;;;;;4917285;29;20043;-77
2023/04/03 13:12:49;;;;;;;1.95;0.60;;;;;;;;;;4915200;29;20472;-78
2023/04/03 13:15:15;;;;;;;2.03;0.60;;;;;;;;;;4914882;29;20040;-80
2023/04/03 13:17:42;;;;;;;0.45;0.45;;;;;;;;;;4915228;29;20025;-80
2023/04/03 13:20:13;;;;;;;1.83;0.57;;;;;;;;;;4917095;29;20043;-81
2023/04/03 13:22:50;;;;;;;1.70;0.60;;;;;;;;;;4934814;29;20028;-81
2023/04/03 13:25:16;;;;;;;0.98;0.40;;;;;;;;;;4935490;29;20387;-78
2023/04/03 13:27:43;;;;;;;3.40;0.63;;;;;;;;;;4935804;29;20467;-79
2023/04/03 13:30:21;;;;;;;1.73;0.50;;;;;;;;;;4934615;29;20471;-78
2023/04/03 13:32:47;;;;;;;0.98;0.60;;;;;;;;;;4933622;29;20118;-78
2023/04/03 13:35:30;;;;;;;1.70;0.60;;;;;;;;;;4934091;29;20043;-77
2023/04/03 13:37:57;;;;;;;1.75;0.40;;;;;;;;;;4934087;29;20059;-77
2023/04/03 13:40:24;;;;;;;2.30;1.02;;;;;;;;;;4933645;29;20071;-78
2023/04/03 13:43:00;;;;;;;1.65;0.60;;;;;;;;;;4936056;29;20031;-78
2023/04/03 13:45:28;;;;;;;0.52;0.50;;;;;;;;;;4917806;29;20486;-77
2023/04/03 13:48:07;;;;;;;1.25;0.70;;;;;;;;;;4934092;29;20046;-77
2023/04/03 13:50:33;;;;;;;3.03;1.10;;;;;;;;;;4934317;29;20079;-78
2023/04/03 13:53:03;;;;;;;1.30;0.45;;;;;;;;;;4935983;29;20048;-80
2023/04/03 13:55:33;;;;;;;1.58;0.60;;;;;;;;;;4939131;29;20040;-81
2023/04/03 13:58:00;;;;;;;2.40;0.80;;;;;;;;;;4939185;29;20055;-80
2023/04/03 14:00:37;;;;;;;1.73;0.65;;;;;;;;;;4934499;29;20028;-78
2023/04/03 14:03:03;;;;;;;1.35;0.75;;;;;;;;;;4937017;29;20064;-78
2023/04/03 14:05:29;;;;;;;1.00;0.65;;;;;;;;;;4919112;29;20446;-77
2023/04/03 14:07:55;;;;;;;1.88;0.80;;;;;;;;;;4936356;29;20106;-77
2023/04/03 14:10:21;;;;;;;1.25;0.60;;;;;;;;;;4921403;29;20079;-77
2023/04/03 14:12:48;;;;;;;0.95;0.75;;;;;;;;;;4929472;29;20035;-77
2023/04/03 14:15:17;;;;;;;1.42;0.55;;;;;;;;;;4936457;29;20059;-77
2023/04/03 14:17:43;;;;;;;2.47;0.68;;;;;;;;;;4935575;29;20039;-77
2023/04/03 14:20:21;;;;;;;3.75;1.23;;;;;;;;;;4916733;29;20032;-77
2023/04/03 14:22:48;;;;;;;3.80;1.20;;;;;;;;;;4925228;29;20103;-77
2023/04/03 14:25:15;;;;;;;4.20;0.98;;;;;;;;;;4927717;29;20028;-77
2023/04/03 14:27:42;;;;;;;2.53;0.95;;;;;;;;;;4935863;29;20027;-77
2023/04/03 14:30:10;;;;;;;2.22;0.93;;;;;;;;;;4934655;29;20126;-77
2023/04/03 14:32:36;;;;;;;1.92;0.60;;;;;;;;;;4935901;29;20032;-77
2023/04/03 14:35:03;;;;;;;1.80;0.75;;;;;;;;;;4936120;29;20487;-77
2023/04/03 14:37:30;;;;;;;1.20;1.10;;;;;;;;;;4935667;29;20034;-77
2023/04/03 14:39:57;;;;;;;2.67;1.00;;;;;;;;;;4936122;29;20027;-77
2023/04/03 14:42:25;;;;;;;2.10;1.02;;;;;;;;;;4936192;29;20066;-79
2023/04/03 14:44:51;;;;;;;1.45;0.90;;;;;;;;;;4938203;29;20106;-79
2023/04/03 14:47:20;;;;;;;1.85;0.60;;;;;;;;;;4924562;29;20032;-79
2023/04/03 14:49:46;;;;;;;2.35;0.88;;;;;;;;;;4918625;29;20039;-79
2023/04/03 14:52:20;;;;;;;1.42;0.80;;;;;;;;;;4919128;29;20032;-79
2023/04/03 14:54:46;;;;;;;1.55;0.90;;;;;;;;;;4919100;29;20059;-79